23:56
Airports
Links
Donate
Help keep this website running!
PayPal
Bitcoin
METAR
CYSB 232338Z 36018G27KT 12SM -SN DRSN SCT012 OVC030 M14/M18 A2966 RMK SC3SC5 SLP071
Current Weather Conditions at CYSB
MVFR 23:38:00 23-01-18
Altimeter:29.66 hg
Temp:-14.0°cf
Dew point:-18.0°c -0°f
Wind:18 knots, 20.7 mph, 9 m/s, from 360°
Visibility:12.0 statute miles
3000(OVC) Overcast
1200(SCT) Scattered
Past METAR reports
LIFR 23:25:00 23-01-18
Altimeter:29.65 hg
Temp:-14.0°cf
Dew point:-17.0°cf
Wind:15 knots, 17.3 mph, 8 m/s, from 350°
Visibility:2.0 statute miles
0(OVX)
CYSB 232325Z 35015G25KT 2SM -SN DRSN VV009 M14/M17 A2965 RMK SN8 SLP068
MVFR 23:00:00 23-01-18
Altimeter:29.63 hg
Temp:-13.0°cf
Dew point:-17.0°cf
Wind:17 knots, 19.6 mph, 9 m/s, from 360°
Visibility:3.0 statute miles
3000(OVC) Overcast
1100(BKN) Broken
CYSB 232300Z 36017G24KT 3SM -SN DRSN BKN011 OVC030 M13/M17 A2963 RMK SC6SC2 SLP061
VFR 22:00:00 23-01-18
Altimeter:29.58 hg
Temp:-12.0°c 10°f
Dew point:-16.0°cf
Wind:19 knots, 21.9 mph, 10 m/s, from 360°
Visibility:15.0 statute miles
4000(OVC) Overcast
2000(FEW) A few
CYSB 232200Z 36019G27KT 15SM -SN DRSN FEW020 OVC040 M12/M16 A2958 RMK SC2SC6 PRESRR SLP043
MVFR 21:00:00 23-01-18
Altimeter:29.53 hg
Temp:-11.0°c 12°f
Dew point:-15.0°cf
Wind:12 knots, 13.8 mph, 6 m/s, from 360°
Visibility:10.0 statute miles
3000(OVC) Overcast
1200(SCT) Scattered
CYSB 232100Z 36012G26KT 10SM -SN DRSN SCT012 OVC030 M11/M15 A2953 RMK SC3SC5 SLP024
MVFR 20:57:00 23-01-18
Altimeter:29.53 hg
Temp:-11.0°c 12°f
Dew point:-15.0°cf
Wind:12 knots, 13.8 mph, 6 m/s, from 360°
Visibility:10.0 statute miles
3000(OVC) Overcast
1200(SCT) Scattered
CYSB 232057Z 36012G26KT 10SM -SN DRSN SCT012 OVC030 M11/M15 A2953 RMK SC3SC5 VIS LWR E SLP025
MVFR 20:36:00 23-01-18
Altimeter:29.51 hg
Temp:-11.0°c 12°f
Dew point:-15.0°cf
Wind:20 knots, 23 mph, 10 m/s, from 360°
Visibility:3.0 statute miles
3500(OVC) Overcast
1500(BKN) Broken
CYSB 232036Z 36020G31KT 3SM R22/5500VP6000FT/U -SN DRSN BKN015 OVC035 M11/M15 A2951 RMK SF6SC2 SLP021
TAF
TAF CYSB 231940Z 2320/2408 01015G25KT P6SM -SN OVC030 TEMPO 2320/2401 21/2SM -SN OVC020 PROB30 2320/2323 1SM -SN BLSN OVC005 FM240100 35012KT P6SM BKN030 RMK NXT FCST BY 240200Z
Forecast at CYSB
20:00 23-01-18 to 01:00 24-01-18
-SN
Wind:15 Knots from 10°
Visibility:6.21 statute miles
3000OVC Overcast
PROB 20:00 23-01-18 to 23:00 23-01-18
30% -SN BLSN
Visibility:1.0 statute miles
500OVC Overcast
TEMPO 20:00 23-01-18 to 01:00 24-01-18
-SN
Visibility:2.5 statute miles
2000OVC Overcast
FM 01:00 24-01-18 to 08:00 24-01-18
Wind:12 Knots from 350°
Visibility:6.21 statute miles
3000BKN Broken